Time;durP1;ratioP1;P1;durP2;ratioP2;P2;SDS_P1;SDS_P2;PMS_P1;PMS_P2;Temp;Humidity;BMP_temperature;BMP_pressure;BME280_temperature;BME280_humidity;BME280_pressure;Samples;Min_cycle;Max_cycle;Signal;HPM_P1;HPM_P2
2021/11/24 00:00:35;;;;;;;3.90;3.10;;;16.90;56.70;;;;;;4939162;29;20491;-77
2021/11/24 00:03:03;;;;;;;4.50;3.27;;;16.90;56.70;;;;;;4938106;29;20488;-78
2021/11/24 00:05:33;;;;;;;3.70;3.37;;;16.90;56.70;;;;;;4932642;29;20514;-80
2021/11/24 00:08:01;;;;;;;3.37;3.07;;;16.90;56.60;;;;;;4939746;29;20527;-79
2021/11/24 00:10:31;;;;;;;4.97;3.40;;;16.90;56.70;;;;;;4939980;29;20484;-81
2021/11/24 00:13:00;;;;;;;4.90;3.77;;;16.90;56.80;;;;;;4943191;29;20462;-82
2021/11/24 00:15:28;;;;;;;4.20;3.80;;;16.90;56.70;;;;;;4939255;29;20476;-78
2021/11/24 00:17:56;;;;;;;3.67;3.00;;;16.90;56.70;;;;;;4940456;29;20482;-80
2021/11/24 00:20:27;;;;;;;7.77;3.70;;;16.90;56.70;;;;;;4939954;29;20471;-80
2021/11/24 00:22:56;;;;;;;3.77;3.37;;;16.90;56.70;;;;;;4941932;29;20471;-80
2021/11/24 00:25:25;;;;;;;4.73;3.20;;;16.90;56.70;;;;;;4939881;29;20514;-80
2021/11/24 00:27:53;;;;;;;5.27;3.17;;;16.90;56.70;;;;;;4941272;29;20472;-80
2021/11/24 00:30:21;;;;;;;3.30;3.10;;;16.90;56.70;;;;;;4939756;29;20519;-80
2021/11/24 00:32:49;;;;;;;4.03;3.63;;;16.90;57.40;;;;;;4939246;29;20477;-79
2021/11/24 00:35:17;;;;;;;4.77;3.20;;;16.90;56.80;;;;;;4939241;29;20519;-79
2021/11/24 00:37:45;;;;;;;5.67;3.73;;;16.90;56.90;;;;;;4939857;29;20463;-79
2021/11/24 00:40:15;;;;;;;4.03;3.73;;;16.80;56.90;;;;;;4939165;29;20456;-79
2021/11/24 00:42:43;;;;;;;8.63;3.50;;;16.80;56.80;;;;;;4935947;28;20568;-78
2021/11/24 00:45:11;;;;;;;4.13;3.40;;;16.90;57.00;;;;;;4933425;29;20499;-79
2021/11/24 00:47:39;;;;;;;3.30;2.83;;;16.90;56.90;;;;;;4937243;29;20464;-79
2021/11/24 00:50:08;;;;;;;4.63;3.43;;;16.90;56.90;;;;;;4935988;29;20528;-79
2021/11/24 00:52:36;;;;;;;4.00;3.60;;;16.80;56.90;;;;;;4936685;29;20528;-79
2021/11/24 00:55:05;;;;;;;4.77;3.83;;;16.80;56.90;;;;;;4935949;29;20534;-79
2021/11/24 00:57:34;;;;;;;3.87;3.17;;;16.90;57.00;;;;;;4936420;29;20543;-79
2021/11/24 01:00:02;;;;;;;4.37;3.60;;;16.90;57.00;;;;;;4936365;29;20495;-79
2021/11/24 01:02:30;;;;;;;5.03;3.37;;;16.90;56.90;;;;;;4934711;29;20649;-79
2021/11/24 01:04:58;;;;;;;7.80;3.50;;;16.80;56.80;;;;;;4936054;28;20480;-79
2021/11/24 01:07:27;;;;;;;5.20;3.90;;;16.80;56.90;;;;;;4936420;29;20460;-79
2021/11/24 01:09:54;;;;;;;3.70;3.40;;;16.80;56.90;;;;;;4936066;28;20865;-79
2021/11/24 01:12:22;;;;;;;4.00;3.60;;;16.80;56.90;;;;;;4937350;29;20484;-79
2021/11/24 01:14:52;;;;;;;4.10;3.70;;;16.90;57.00;;;;;;4935313;29;20491;-79
2021/11/24 01:17:20;;;;;;;5.60;4.20;;;16.90;57.00;;;;;;4933646;28;20559;-79
2021/11/24 01:19:48;;;;;;;4.00;3.37;;;16.90;56.90;;;;;;4935777;28;20546;-79
2021/11/24 01:22:16;;;;;;;4.17;3.53;;;16.80;56.80;;;;;;4936528;29;20487;-79
2021/11/24 01:24:44;;;;;;;4.60;3.20;;;16.80;56.90;;;;;;4935422;29;20490;-79
2021/11/24 01:27:12;;;;;;;4.03;3.53;;;16.90;56.90;;;;;;4936084;29;20532;-79
2021/11/24 01:29:40;;;;;;;4.70;3.97;;;16.90;56.90;;;;;;4935151;29;21010;-78
2021/11/24 01:32:11;;;;;;;5.07;3.33;;;16.80;56.80;;;;;;4935931;29;20484;-79
2021/11/24 01:34:39;;;;;;;9.23;3.80;;;16.80;56.90;;;;;;4934217;28;20512;-78
2021/11/24 01:37:07;;;;;;;3.60;3.30;;;16.80;56.80;;;;;;4932492;29;20543;-79
2021/11/24 01:39:35;;;;;;;3.60;3.30;;;16.80;56.90;;;;;;4934939;29;20450;-79
2021/11/24 01:42:03;;;;;;;4.20;3.80;;;16.80;57.00;;;;;;4935749;28;20555;-79
2021/11/24 01:44:32;;;;;;;4.60;4.00;;;16.80;57.00;;;;;;4935481;29;20495;-79
2021/11/24 01:47:02;;;;;;;5.00;3.97;;;16.70;56.80;;;;;;4936577;28;20448;-79
2021/11/24 01:49:32;;;;;;;3.67;3.37;;;16.70;56.90;;;;;;4937593;29;20468;-79
2021/11/24 01:52:01;;;;;;;3.70;3.37;;;16.80;57.10;;;;;;4934852;29;20456;-78
2021/11/24 01:54:29;;;;;;;5.83;3.87;;;16.70;56.90;;;;;;4935918;29;20496;-79
2021/11/24 01:56:58;;;;;;;3.93;3.53;;;16.70;57.00;;;;;;4936631;29;20492;-79
2021/11/24 01:59:26;;;;;;;3.40;3.10;;;16.70;56.90;;;;;;4937173;29;20523;-79
2021/11/24 02:01:54;;;;;;;3.80;3.50;;;16.70;57.00;;;;;;4936727;29;20499;-79
2021/11/24 02:04:22;;;;;;;5.27;3.87;;;16.70;57.00;;;;;;4937013;29;20563;-79
2021/11/24 02:06:52;;;;;;;3.63;3.33;;;16.70;57.10;;;;;;4936731;29;20799;-79
2021/11/24 02:09:21;;;;;;;5.83;4.00;;;16.70;57.00;;;;;;4935208;29;20452;-79
2021/11/24 02:11:49;;;;;;;4.60;3.50;;;16.70;57.10;;;;;;4936208;28;20975;-79
2021/11/24 02:14:17;;;;;;;4.00;3.60;;;16.70;57.20;;;;;;4936944;29;20463;-79
2021/11/24 02:16:46;;;;;;;3.37;3.00;;;16.70;57.00;;;;;;4936458;28;20475;-79
2021/11/24 02:19:15;;;;;;;5.23;3.90;;;16.70;57.10;;;;;;4936200;28;20459;-79
2021/11/24 02:21:48;;;;;;;3.60;3.30;;;16.70;57.10;;;;;;4937038;29;20439;-79
2021/11/24 02:24:16;;;;;;;3.40;3.10;;;16.80;57.00;;;;;;4937146;29;20480;-78
2021/11/24 02:26:44;;;;;;;3.53;3.23;;;16.70;56.90;;;;;;4932776;29;20562;-79
2021/11/24 02:29:13;;;;;;;5.20;3.60;;;16.70;57.00;;;;;;4936984;29;20525;-79
2021/11/24 02:31:41;;;;;;;4.07;3.20;;;16.70;56.90;;;;;;4936456;29;20543;-79
2021/11/24 02:34:09;;;;;;;3.97;3.63;;;16.70;57.10;;;;;;4935994;29;20558;-79
2021/11/24 02:36:37;;;;;;;3.83;3.53;;;16.70;57.00;;;;;;4935971;29;20538;-79
2021/11/24 02:39:07;;;;;;;4.20;3.80;;;16.70;57.00;;;;;;4936005;29;20491;-79
2021/11/24 02:41:35;;;;;;;5.57;3.87;;;16.70;56.90;;;;;;4935330;29;20543;-79
2021/11/24 02:44:15;;;;;;;4.17;3.77;;;16.80;57.10;;;;;;4935661;28;20554;-79
2021/11/24 02:46:44;;;;;;;4.50;3.47;;;16.70;56.80;;;;;;4934836;29;20550;-79
2021/11/24 02:49:12;;;;;;;4.10;3.67;;;16.70;56.80;;;;;;4936041;29;20476;-79
2021/11/24 02:51:41;;;;;;;3.87;3.47;;;16.80;57.10;;;;;;4934723;29;20459;-79
2021/11/24 02:54:10;;;;;;;3.73;3.40;;;16.70;57.00;;;;;;4933427;29;20499;-79
2021/11/24 02:56:40;;;;;;;4.53;3.80;;;16.80;57.00;;;;;;4935273;29;20544;-79
2021/11/24 02:59:09;;;;;;;5.50;3.90;;;16.80;57.10;;;;;;4933427;29;20543;-79
2021/11/24 03:01:38;;;;;;;3.80;3.50;;;16.70;56.90;;;;;;4935302;29;20491;-78
2021/11/24 03:04:08;;;;;;;4.17;3.60;;;16.70;56.90;;;;;;4936533;29;20484;-78
2021/11/24 03:06:36;;;;;;;4.80;3.37;;;16.70;56.90;;;;;;4936009;29;20452;-79
2021/11/24 03:09:04;;;;;;;5.00;3.80;;;16.70;57.00;;;;;;4936268;29;20448;-79
2021/11/24 03:11:34;;;;;;;3.53;3.23;;;16.70;56.90;;;;;;4936497;29;20567;-79
2021/11/24 03:14:02;;;;;;;4.93;3.60;;;16.70;57.10;;;;;;4936494;29;20488;-79
2021/11/24 03:16:30;;;;;;;4.63;4.00;;;16.70;57.10;;;;;;4935395;29;20495;-79
2021/11/24 03:18:58;;;;;;;5.00;4.00;;;16.70;56.90;;;;;;4936089;29;20440;-79
2021/11/24 03:21:26;;;;;;;3.50;3.27;;;16.80;57.10;;;;;;4936445;29;20455;-78
2021/11/24 03:23:54;;;;;;;4.10;3.70;;;16.80;56.90;;;;;;4936024;29;21046;-78
2021/11/24 03:26:23;;;;;;;4.10;3.70;;;16.80;56.90;;;;;;4936110;29;20503;-79
2021/11/24 03:28:53;;;;;;;4.10;3.80;;;16.80;57.00;;;;;;4936025;29;20497;-79
2021/11/24 03:31:21;;;;;;;4.23;3.83;;;16.80;57.00;;;;;;4937835;29;20478;-79
2021/11/24 03:33:49;;;;;;;4.47;3.50;;;16.80;57.00;;;;;;4939206;28;20480;-79
2021/11/24 03:36:17;;;;;;;4.10;3.70;;;16.80;56.90;;;;;;4943036;29;20434;-80
2021/11/24 03:38:45;;;;;;;3.97;3.43;;;16.80;56.80;;;;;;4944954;29;20486;-80
2021/11/24 03:41:14;;;;;;;6.07;3.47;;;16.80;57.00;;;;;;4941899;29;21031;-80
2021/11/24 03:43:47;;;;;;;4.57;3.80;;;16.70;56.90;;;;;;4945806;29;20479;-80
2021/11/24 03:46:16;;;;;;;3.67;3.33;;;16.80;57.10;;;;;;4945934;29;20447;-80
2021/11/24 03:48:46;;;;;;;6.00;3.90;;;16.80;57.00;;;;;;4944437;29;20448;-80
2021/11/24 03:51:15;;;;;;;4.60;3.33;;;16.80;57.00;;;;;;4942755;29;20451;-80
2021/11/24 03:53:43;;;;;;;5.30;3.97;;;16.80;57.00;;;;;;4945744;29;20448;-80
2021/11/24 03:56:12;;;;;;;3.70;3.40;;;16.80;57.00;;;;;;4945766;29;20488;-80
2021/11/24 03:58:40;;;;;;;3.87;3.50;;;16.80;57.00;;;;;;4945438;29;20432;-80
2021/11/24 04:01:09;;;;;;;4.50;3.60;;;16.80;57.00;;;;;;4944877;29;20550;-80
2021/11/24 04:03:38;;;;;;;4.67;3.70;;;16.80;56.80;;;;;;4944064;29;20558;-80
2021/11/24 04:06:06;;;;;;;5.40;3.80;;;16.80;57.00;;;;;;4943142;29;20459;-80
2021/11/24 04:08:34;;;;;;;4.30;3.90;;;16.80;57.00;;;;;;4944858;29;20531;-80
2021/11/24 04:11:03;;;;;;;3.93;3.60;;;16.80;56.90;;;;;;4944592;29;20502;-80
2021/11/24 04:13:31;;;;;;;4.30;3.37;;;16.80;56.90;;;;;;4945253;29;20436;-80
2021/11/24 04:15:59;;;;;;;4.50;3.90;;;16.80;57.00;;;;;;4944366;29;20919;-80
2021/11/24 04:18:27;;;;;;;6.60;3.77;;;16.80;57.00;;;;;;4945222;29;20431;-80
2021/11/24 04:20:57;;;;;;;3.80;3.50;;;16.90;57.00;;;;;;4945060;28;20475;-80
2021/11/24 04:23:25;;;;;;;3.57;3.27;;;16.80;57.40;;;;;;4945613;28;20475;-80
2021/11/24 04:25:53;;;;;;;4.47;3.80;;;16.80;56.90;;;;;;4944847;29;20495;-80
2021/11/24 04:28:21;;;;;;;3.53;3.23;;;16.90;57.00;;;;;;4946227;29;20468;-80
2021/11/24 04:30:49;;;;;;;3.57;3.27;;;16.80;56.90;;;;;;4946280;29;20464;-79
2021/11/24 04:33:18;;;;;;;5.97;4.00;;;16.80;57.00;;;;;;4946013;29;20428;-80
2021/11/24 04:35:46;;;;;;;3.47;3.17;;;16.80;56.90;;;;;;4946428;29;20447;-80
2021/11/24 04:38:15;;;;;;;4.13;3.73;;;16.80;56.90;;;;;;4946089;29;20432;-80
2021/11/24 04:40:44;;;;;;;6.23;3.80;;;16.90;57.10;;;;;;4941241;29;20484;-80
2021/11/24 04:43:14;;;;;;;3.50;3.20;;;16.90;57.00;;;;;;4940573;29;20448;-80
2021/11/24 04:45:42;;;;;;;3.60;3.30;;;16.90;56.90;;;;;;4941561;29;20458;-80
2021/11/24 04:48:11;;;;;;;4.47;4.07;;;16.90;56.80;;;;;;4941191;29;20543;-79
2021/11/24 04:50:39;;;;;;;4.20;3.80;;;16.90;57.00;;;;;;4940819;29;20451;-80
2021/11/24 04:53:07;;;;;;;3.50;3.20;;;16.90;56.90;;;;;;4940459;29;20432;-80
2021/11/24 04:55:37;;;;;;;3.80;3.30;;;16.90;56.90;;;;;;4936559;28;20492;-78
2021/11/24 04:58:05;;;;;;;3.70;3.40;;;16.90;56.90;;;;;;4938820;29;20460;-79
2021/11/24 05:00:33;;;;;;;3.80;3.50;;;16.90;57.00;;;;;;4937767;29;20540;-79
2021/11/24 05:03:01;;;;;;;3.87;3.37;;;16.90;57.10;;;;;;4939475;29;20432;-79
2021/11/24 05:05:30;;;;;;;4.23;3.83;;;16.90;57.00;;;;;;4937334;29;20570;-79
2021/11/24 05:07:58;;;;;;;4.03;3.60;;;16.80;57.40;;;;;;4938763;29;20464;-80
2021/11/24 05:10:27;;;;;;;3.60;3.30;;;16.90;57.10;;;;;;4938810;29;20478;-80
2021/11/24 05:12:56;;;;;;;4.30;3.60;;;16.90;57.00;;;;;;4936316;29;20452;-80
2021/11/24 05:15:28;;;;;;;4.00;3.63;;;16.90;57.00;;;;;;4939172;29;20499;-80
2021/11/24 05:17:58;;;;;;;4.10;3.70;;;16.90;57.00;;;;;;4939912;29;20512;-79
2021/11/24 05:20:28;;;;;;;4.10;3.70;;;16.90;57.00;;;;;;4939794;29;20444;-80
2021/11/24 05:22:59;;;;;;;3.73;3.43;;;16.90;57.00;;;;;;4939661;29;20447;-79
2021/11/24 05:25:27;;;;;;;3.50;3.20;;;16.90;56.90;;;;;;4939197;29;20478;-80
2021/11/24 05:27:56;;;;;;;3.53;3.30;;;16.90;56.90;;;;;;4939785;29;20491;-79
2021/11/24 05:30:27;;;;;;;3.20;2.90;;;16.80;56.90;;;;;;4938533;29;20582;-79
2021/11/24 05:32:55;;;;;;;5.63;3.50;;;16.90;57.00;;;;;;4938308;29;20487;-78
2021/11/24 05:35:25;;;;;;;5.40;3.60;;;16.90;57.50;;;;;;4937233;29;20480;-78
2021/11/24 05:37:53;;;;;;;3.33;3.03;;;16.90;56.90;;;;;;4936903;29;21014;-79
2021/11/24 05:40:24;;;;;;;3.40;3.10;;;16.90;56.90;;;;;;4937405;29;20433;-79
2021/11/24 05:42:52;;;;;;;4.00;3.60;;;16.80;57.00;;;;;;4936881;29;20498;-79
2021/11/24 05:45:36;;;;;;;3.47;3.17;;;16.80;57.10;;;;;;4936547;29;20583;-78
2021/11/24 05:48:08;;;;;;;3.43;3.13;;;16.80;57.00;;;;;;4935259;29;20483;-79
2021/11/24 05:50:43;;;;;;;3.97;3.40;;;16.90;57.10;;;;;;4936816;29;20436;-79
2021/11/24 05:53:11;;;;;;;3.97;3.07;;;16.80;56.90;;;;;;4936111;29;20656;-79
2021/11/24 05:55:39;;;;;;;3.60;3.30;;;16.80;57.00;;;;;;4936066;29;20466;-78
2021/11/24 05:58:07;;;;;;;3.90;3.20;;;16.80;57.00;;;;;;4936715;29;20519;-79
2021/11/24 06:00:37;;;;;;;3.60;3.30;;;16.80;57.10;;;;;;4937364;29;20535;-79
2021/11/24 06:03:05;;;;;;;6.23;3.77;;;16.80;57.20;;;;;;4937223;29;20459;-79
2021/11/24 06:05:33;;;;;;;3.97;3.67;;;16.80;57.00;;;;;;4935174;29;20488;-79
2021/11/24 06:08:02;;;;;;;3.37;3.07;;;16.80;57.00;;;;;;4936048;29;20534;-78
2021/11/24 06:10:30;;;;;;;3.77;3.40;;;16.90;57.00;;;;;;4937016;29;20891;-78
2021/11/24 06:12:58;;;;;;;3.80;3.40;;;16.90;57.10;;;;;;4917113;29;20480;-79
2021/11/24 06:15:27;;;;;;;3.30;3.00;;;16.90;57.00;;;;;;4917458;29;20483;-79
2021/11/24 06:17:57;;;;;;;3.57;3.23;;;16.90;57.00;;;;;;4917566;29;20532;-79
2021/11/24 06:20:26;;;;;;;3.40;3.10;;;16.90;57.00;;;;;;4917485;29;20453;-78
2021/11/24 06:22:54;;;;;;;3.63;3.33;;;16.90;57.10;;;;;;4931073;29;20492;-79
2021/11/24 06:25:22;;;;;;;3.67;3.30;;;16.90;57.00;;;;;;4935714;29;20511;-79
2021/11/24 06:27:50;;;;;;;3.73;2.97;;;16.90;57.00;;;;;;4936340;29;20475;-79
2021/11/24 06:30:19;;;;;;;3.33;3.03;;;16.90;57.00;;;;;;4936297;29;20452;-79
2021/11/24 06:32:47;;;;;;;3.10;2.90;;;16.90;57.00;;;;;;4936409;29;20448;-79
2021/11/24 06:35:17;;;;;;;3.30;3.10;;;16.90;57.00;;;;;;4936255;29;20571;-79
2021/11/24 06:37:45;;;;;;;3.30;3.10;;;16.80;57.60;;;;;;4936215;29;20519;-79
2021/11/24 06:40:13;;;;;;;3.50;3.20;;;16.90;57.10;;;;;;4934787;29;20547;-79
2021/11/24 06:42:41;;;;;;;3.00;2.80;;;16.90;57.10;;;;;;4936635;28;20555;-79
2021/11/24 06:45:10;;;;;;;4.00;3.30;;;16.80;57.10;;;;;;4936887;29;20574;-80
2021/11/24 06:47:39;;;;;;;3.57;3.27;;;16.90;57.00;;;;;;4936944;29;20452;-79
2021/11/24 06:50:08;;;;;;;3.50;3.20;;;16.80;57.00;;;;;;4936553;29;20445;-79
2021/11/24 06:52:37;;;;;;;3.77;3.40;;;16.80;57.10;;;;;;4936360;29;21039;-80
2021/11/24 06:55:07;;;;;;;2.90;2.70;;;16.80;57.00;;;;;;4936380;29;20543;-79
2021/11/24 06:57:35;;;;;;;3.60;3.30;;;16.90;57.10;;;;;;4935615;29;20566;-79
2021/11/24 07:00:04;;;;;;;3.80;3.50;;;16.80;57.00;;;;;;4936551;29;20448;-78
2021/11/24 07:02:32;;;;;;;3.50;3.20;;;16.90;57.10;;;;;;4936146;29;20522;-79
2021/11/24 07:05:01;;;;;;;3.90;3.60;;;16.90;57.00;;;;;;4937375;29;20484;-79
2021/11/24 07:07:29;;;;;;;3.67;3.37;;;16.90;57.60;;;;;;4942973;29;20467;-79
2021/11/24 07:09:59;;;;;;;3.67;3.33;;;16.90;57.70;;;;;;4943132;29;20531;-79
2021/11/24 07:12:27;;;;;;;3.67;3.37;;;16.90;56.90;;;;;;4943034;28;20479;-79
2021/11/24 07:14:56;;;;;;;3.10;2.80;;;16.80;56.90;;;;;;4941708;29;20554;-79
2021/11/24 07:17:24;;;;;;;3.13;2.93;;;16.80;57.00;;;;;;4942831;28;20479;-79
2021/11/24 07:19:52;;;;;;;3.23;2.93;;;16.80;56.90;;;;;;4943033;29;20539;-79
2021/11/24 07:22:21;;;;;;;3.60;3.30;;;16.80;56.90;;;;;;4943232;29;20534;-80
2021/11/24 07:24:48;;;;;;;3.37;3.07;;;16.80;56.90;;;;;;4943242;29;20566;-79
2021/11/24 07:27:18;;;;;;;3.40;3.10;;;16.80;56.90;;;;;;4942950;29;20479;-79
2021/11/24 07:29:47;;;;;;;3.03;2.83;;;16.80;57.60;;;;;;4941629;29;20487;-79
2021/11/24 07:32:15;;;;;;;4.53;3.27;;;16.80;56.90;;;;;;4943106;29;20530;-78
2021/11/24 07:34:44;;;;;;;5.43;3.17;;;16.80;57.00;;;;;;4943228;29;20527;-79
2021/11/24 07:37:12;;;;;;;3.87;3.20;;;16.90;57.00;;;;;;4943136;29;20443;-79
2021/11/24 07:39:40;;;;;;;3.23;3.03;;;16.80;56.80;;;;;;4943405;29;20440;-79
2021/11/24 07:42:08;;;;;;;3.20;2.90;;;16.80;57.00;;;;;;4942715;29;20551;-79
2021/11/24 07:44:38;;;;;;;2.83;2.63;;;16.80;56.90;;;;;;4942767;29;20526;-79
2021/11/24 07:47:07;;;;;;;3.20;2.93;;;16.80;57.00;;;;;;4941614;29;20955;-79
2021/11/24 07:49:35;;;;;;;3.80;3.33;;;16.80;57.00;;;;;;4942989;29;20467;-79
2021/11/24 07:52:03;;;;;;;3.80;3.37;;;16.80;56.90;;;;;;4943982;29;20440;-80
2021/11/24 07:54:32;;;;;;;4.63;3.50;;;16.90;57.00;;;;;;4944406;29;20495;-79
2021/11/24 07:57:00;;;;;;;3.33;3.07;;;16.80;56.80;;;;;;4943463;29;20470;-79
2021/11/24 07:59:28;;;;;;;2.77;2.57;;;16.90;57.00;;;;;;4943759;29;20484;-79
2021/11/24 08:01:57;;;;;;;2.70;2.50;;;16.90;56.70;;;;;;4942699;29;20448;-79
2021/11/24 08:04:27;;;;;;;3.40;3.00;;;16.90;57.00;;;;;;4941916;29;20515;-78
2021/11/24 08:06:59;;;;;;;3.63;2.93;;;16.90;56.90;;;;;;4942709;29;20547;-79
2021/11/24 08:09:27;;;;;;;3.10;2.90;;;16.90;56.90;;;;;;4942655;29;20518;-78
2021/11/24 08:11:55;;;;;;;3.13;2.87;;;16.90;56.80;;;;;;4942347;29;20514;-79
2021/11/24 08:14:23;;;;;;;5.00;3.60;;;16.90;56.90;;;;;;4942367;29;20524;-78
2021/11/24 08:16:52;;;;;;;3.30;3.10;;;16.90;56.80;;;;;;4940766;29;20452;-78
2021/11/24 08:19:21;;;;;;;3.40;3.10;;;16.90;56.80;;;;;;4939425;29;20451;-79
2021/11/24 08:21:49;;;;;;;3.63;3.33;;;16.90;56.90;;;;;;4938078;29;20555;-79
2021/11/24 08:24:17;;;;;;;3.43;2.97;;;16.90;56.70;;;;;;4938675;29;20478;-79
2021/11/24 08:26:45;;;;;;;3.83;2.70;;;16.90;56.70;;;;;;4938503;29;20494;-79
2021/11/24 08:29:13;;;;;;;2.90;2.70;;;17.00;56.90;;;;;;4939371;29;20515;-79
2021/11/24 08:31:41;;;;;;;3.00;2.80;;;17.00;56.70;;;;;;4939371;29;20436;-79
2021/11/24 08:34:10;;;;;;;3.40;3.10;;;17.00;56.90;;;;;;4938692;29;20530;-79
2021/11/24 08:36:39;;;;;;;3.70;3.40;;;17.00;56.80;;;;;;4938953;29;20440;-79
2021/11/24 08:39:08;;;;;;;3.73;3.30;;;17.00;56.70;;;;;;4937445;29;20487;-79
2021/11/24 08:41:43;;;;;;;2.63;2.53;;;17.10;56.90;;;;;;4938931;29;20855;-80
2021/11/24 08:44:12;;;;;;;2.73;2.53;;;17.10;56.80;;;;;;4939287;29;20983;-79
2021/11/24 08:46:39;;;;;;;3.43;3.13;;;17.10;56.70;;;;;;4938763;28;20508;-79
2021/11/24 08:49:07;;;;;;;3.77;2.80;;;17.10;56.80;;;;;;4938659;28;20544;-79
2021/11/24 08:51:36;;;;;;;3.77;3.10;;;17.10;56.70;;;;;;4938292;29;20811;-79
2021/11/24 08:54:06;;;;;;;3.07;2.80;;;17.10;56.60;;;;;;4937601;29;20496;-78
2021/11/24 08:56:35;;;;;;;3.03;2.80;;;17.10;56.60;;;;;;4936786;29;20475;-79
2021/11/24 08:59:04;;;;;;;3.87;2.87;;;17.10;56.60;;;;;;4937329;29;20476;-78
2021/11/24 09:01:32;;;;;;;3.33;2.97;;;17.20;56.70;;;;;;4938253;29;20478;-78
2021/11/24 09:04:00;;;;;;;3.03;2.83;;;17.20;56.70;;;;;;4937548;29;20480;-79
2021/11/24 09:06:29;;;;;;;3.27;3.00;;;17.20;56.40;;;;;;4937842;29;20495;-79
2021/11/24 09:08:57;;;;;;;3.27;3.03;;;17.20;56.50;;;;;;4937865;29;20475;-78
2021/11/24 09:11:26;;;;;;;3.50;3.20;;;17.20;56.60;;;;;;4937756;29;20556;-78
2021/11/24 09:13:55;;;;;;;3.30;3.00;;;17.20;56.50;;;;;;4935865;29;20513;-78
2021/11/24 09:16:27;;;;;;;3.50;3.20;;;17.20;56.50;;;;;;4937702;29;20952;-79
2021/11/24 09:18:56;;;;;;;3.30;3.00;;;17.30;56.70;;;;;;4938066;29;20536;-79
2021/11/24 09:21:24;;;;;;;5.23;2.73;;;17.30;56.60;;;;;;4938523;29;20476;-79
2021/11/24 09:23:53;;;;;;;2.90;2.70;;;17.30;56.60;;;;;;4937805;29;20540;-78
2021/11/24 09:26:26;;;;;;;2.87;2.70;;;17.30;56.60;;;;;;4937417;29;20487;-79
2021/11/24 09:28:56;;;;;;;2.80;2.60;;;17.30;56.40;;;;;;4937523;29;20463;-79
2021/11/24 09:31:24;;;;;;;3.20;2.87;;;17.30;56.40;;;;;;4936161;29;20551;-79
2021/11/24 09:33:52;;;;;;;2.70;2.40;;;17.40;56.40;;;;;;4937238;29;20467;-79
2021/11/24 09:36:20;;;;;;;3.03;2.83;;;17.40;56.70;;;;;;4937177;29;20526;-79
2021/11/24 09:38:50;;;;;;;3.03;2.77;;;17.40;56.50;;;;;;4937244;29;20478;-79
2021/11/24 09:41:22;;;;;;;6.00;2.93;;;17.40;56.50;;;;;;4936993;29;20504;-79
2021/11/24 09:43:52;;;;;;;3.00;2.80;;;17.40;56.50;;;;;;4936837;29;20542;-78
2021/11/24 09:46:22;;;;;;;2.80;2.50;;;17.40;56.40;;;;;;4936135;29;20543;-79
2021/11/24 09:48:50;;;;;;;3.10;2.87;;;17.40;56.40;;;;;;4936941;28;20479;-78
2021/11/24 09:51:19;;;;;;;3.37;2.90;;;17.50;56.40;;;;;;4937160;29;20440;-79
2021/11/24 09:53:48;;;;;;;3.20;2.90;;;17.50;56.40;;;;;;4936543;29;20548;-78
2021/11/24 09:56:16;;;;;;;3.07;2.83;;;17.50;56.40;;;;;;4934731;29;20520;-79
2021/11/24 09:58:45;;;;;;;2.70;2.50;;;17.50;56.40;;;;;;4935035;29;20440;-77
2021/11/24 10:01:14;;;;;;;2.93;2.43;;;17.50;56.40;;;;;;4935348;29;20483;-77
2021/11/24 10:03:43;;;;;;;3.10;2.80;;;17.50;56.20;;;;;;4933923;29;20535;-77
2021/11/24 10:06:11;;;;;;;3.00;2.80;;;17.60;56.50;;;;;;4935680;29;20547;-78
2021/11/24 10:09:01;;;;;;;3.60;3.30;;;17.60;56.40;;;;;;4935539;29;20440;-78
2021/11/24 10:11:29;;;;;;;3.57;2.60;;;17.60;56.40;;;;;;4935738;29;20446;-78
2021/11/24 10:13:57;;;;;;;3.23;3.03;;;17.60;56.20;;;;;;4935062;29;20997;-78
2021/11/24 10:16:26;;;;;;;3.27;3.00;;;17.60;56.30;;;;;;4935278;29;20533;-78
2021/11/24 10:19:08;;;;;;;3.23;2.87;;;17.60;56.20;;;;;;4935260;28;20436;-78
2021/11/24 10:21:36;;;;;;;3.30;2.80;;;17.60;56.10;;;;;;4931260;29;20459;-78
2021/11/24 10:24:05;;;;;;;2.60;2.40;;;17.70;56.40;;;;;;4934951;28;20456;-78
2021/11/24 10:26:34;;;;;;;2.60;2.40;;;17.70;56.20;;;;;;4934905;29;20559;-78
2021/11/24 10:29:06;;;;;;;3.17;2.93;;;17.70;56.10;;;;;;4935023;29;20799;-78
2021/11/24 10:31:36;;;;;;;4.00;2.90;;;17.70;56.20;;;;;;4934835;28;20439;-78
2021/11/24 10:34:14;;;;;;;3.07;2.73;;;17.70;56.80;;;;;;4934604;29;20468;-78
2021/11/24 10:37:00;;;;;;;4.20;3.20;;;17.80;56.30;;;;;;4930477;29;20428;-78
2021/11/24 10:39:31;;;;;;;3.50;3.20;;;17.80;56.20;;;;;;4930392;29;20471;-78
2021/11/24 10:42:10;;;;;;;3.30;3.10;;;17.80;56.20;;;;;;4933609;29;20538;-77
2021/11/24 10:44:38;;;;;;;4.20;2.90;;;17.80;56.10;;;;;;4935023;29;20539;-78
2021/11/24 10:47:07;;;;;;;3.30;3.00;;;17.80;56.20;;;;;;4934621;29;20588;-77
2021/11/24 10:49:41;;;;;;;3.37;2.97;;;17.90;56.00;;;;;;4932336;29;20439;-77
2021/11/24 10:52:14;;;;;;;3.20;3.00;;;17.90;56.10;;;;;;4934833;28;20523;-78
2021/11/24 10:54:42;;;;;;;3.13;2.83;;;17.90;56.10;;;;;;4932157;29;20487;-78
2021/11/24 10:57:11;;;;;;;3.50;3.03;;;17.90;56.00;;;;;;4933167;29;20456;-78
2021/11/24 10:59:40;;;;;;;3.13;2.77;;;18.00;56.00;;;;;;4932295;29;20472;-78
2021/11/24 11:02:18;;;;;;;2.80;2.60;;;18.00;55.90;;;;;;4934588;29;20507;-78
2021/11/24 11:05:08;;;;;;;2.70;2.50;;;18.00;56.50;;;;;;4932849;29;20448;-79
2021/11/24 11:07:38;;;;;;;8.43;3.00;;;18.00;55.90;;;;;;4934126;29;20567;-78
2021/11/24 11:10:13;;;;;;;4.23;3.17;;;18.00;56.60;;;;;;4934449;29;20516;-78
2021/11/24 11:12:43;;;;;;;3.90;2.73;;;18.00;56.00;;;;;;4929057;29;20514;-78
2021/11/24 11:15:22;;;;;;;3.07;2.77;;;18.00;55.90;;;;;;4933404;29;20507;-78
2021/11/24 11:18:13;;;;;;;2.53;2.33;;;18.10;55.90;;;;;;4933749;29;20558;-78
2021/11/24 11:20:45;;;;;;;2.87;2.67;;;18.10;55.90;;;;;;4930940;29;20446;-78
2021/11/24 11:23:18;;;;;;;6.50;2.90;;;18.10;55.90;;;;;;4934557;29;20432;-78
2021/11/24 11:25:47;;;;;;;2.93;2.73;;;18.10;55.80;;;;;;4929753;29;20514;-78
2021/11/24 11:28:15;;;;;;;3.03;2.83;;;18.10;55.90;;;;;;4934385;29;20571;-78
2021/11/24 11:30:44;;;;;;;3.13;2.83;;;18.10;55.80;;;;;;4933426;29;20551;-78
2021/11/24 11:33:14;;;;;;;3.10;2.80;;;18.20;55.80;;;;;;4934399;29;20454;-78
2021/11/24 11:35:44;;;;;;;2.97;2.77;;;18.20;55.90;;;;;;4931898;29;20435;-78
2021/11/24 11:38:16;;;;;;;2.63;2.43;;;18.20;55.80;;;;;;4933973;29;20447;-78
2021/11/24 11:40:45;;;;;;;3.00;2.70;;;18.30;55.80;;;;;;4934410;29;20436;-77
2021/11/24 11:43:14;;;;;;;2.73;2.57;;;18.30;55.60;;;;;;4934337;29;20443;-78
2021/11/24 11:46:13;;;;;;;3.37;3.07;;;18.40;55.70;;;;;;4934285;28;20811;-78
2021/11/24 11:48:42;;;;;;;3.40;2.87;;;18.50;55.50;;;;;;4932158;29;20476;-78
2021/11/24 11:51:12;;;;;;;3.30;3.00;;;18.40;55.30;;;;;;4934059;29;20448;-78
2021/11/24 11:53:49;;;;;;;3.47;2.90;;;18.40;55.20;;;;;;4936620;29;20475;-78
2021/11/24 11:56:20;;;;;;;3.43;3.17;;;18.40;55.30;;;;;;4937618;29;20478;-77
2021/11/24 11:58:59;;;;;;;3.17;2.97;;;18.40;55.30;;;;;;4932922;29;20507;-78
2021/11/24 12:01:29;;;;;;;3.60;3.20;;;18.40;55.40;;;;;;4927476;29;20468;-78
2021/11/24 12:04:06;;;;;;;3.93;3.30;;;18.40;56.00;;;;;;4929948;29;20475;-77
2021/11/24 12:06:38;;;;;;;3.20;2.90;;;18.40;55.30;;;;;;4934286;29;20432;-78
2021/11/24 12:09:25;;;;;;;3.17;2.93;;;18.40;55.40;;;;;;4927455;29;20560;-78
2021/11/24 12:12:34;;;;;;;3.30;3.00;;;18.40;55.40;;;;;;4928804;29;20512;-79
2021/11/24 12:15:16;;;;;;;3.40;3.10;;;18.40;55.30;;;;;;4925486;29;20530;-78
2021/11/24 12:18:00;;;;;;;3.40;3.10;;;18.40;55.20;;;;;;4926268;29;20440;-78
2021/11/24 12:20:47;;;;;;;3.67;2.90;;;18.30;55.20;;;;;;4933319;29;20452;-78
2021/11/24 12:23:34;;;;;;;3.07;2.87;;;18.30;55.20;;;;;;4936204;29;20790;-79
2021/11/24 12:26:04;;;;;;;3.10;2.90;;;18.30;55.30;;;;;;4931977;29;20471;-77
2021/11/24 12:28:37;;;;;;;3.20;3.00;;;18.30;55.30;;;;;;4929057;29;20991;-78
2021/11/24 12:31:14;;;;;;;3.00;2.80;;;18.30;55.20;;;;;;4932513;29;20530;-78
2021/11/24 12:33:56;;;;;;;3.87;3.17;;;18.30;55.20;;;;;;4932415;29;20495;-78
2021/11/24 12:36:26;;;;;;;2.97;2.77;;;18.30;55.30;;;;;;4932594;29;20503;-78
2021/11/24 12:38:57;;;;;;;2.83;2.63;;;18.30;55.20;;;;;;4935356;29;20861;-78
2021/11/24 12:41:26;;;;;;;2.80;2.60;;;18.30;55.10;;;;;;4932583;29;20484;-78
2021/11/24 12:43:58;;;;;;;3.10;2.90;;;18.30;55.10;;;;;;4932673;29;20518;-77
2021/11/24 12:46:26;;;;;;;3.63;2.63;;;18.30;55.10;;;;;;4930590;29;20538;-77
2021/11/24 12:48:56;;;;;;;4.93;3.10;;;18.30;55.10;;;;;;4928908;29;20505;-78
2021/11/24 12:51:26;;;;;;;7.00;2.60;;;18.30;55.00;;;;;;4926236;29;20539;-78
2021/11/24 12:53:57;;;;;;;3.00;2.60;;;18.30;55.20;;;;;;4930736;29;20475;-78
2021/11/24 12:56:27;;;;;;;3.17;2.90;;;18.30;55.20;;;;;;4937308;29;20467;-79
2021/11/24 12:58:58;;;;;;;6.30;3.10;;;18.30;55.20;;;;;;4928530;29;20452;-80
2021/11/24 13:01:27;;;;;;;4.43;2.67;;;18.30;55.10;;;;;;4932678;29;20484;-79